createdAt,value
2022-10-03T00:00:31.413Z,18.91
2022-10-03T00:03:33.943Z,18.95
2022-10-03T00:06:31.698Z,18.92
2022-10-03T00:09:11.489Z,18.84
2022-10-03T00:12:01.468Z,18.71
2022-10-03T00:14:41.004Z,18.71
2022-10-03T00:17:20.670Z,18.60
2022-10-03T00:20:06.555Z,18.61
2022-10-03T00:22:40.380Z,18.72
2022-10-03T00:25:32.640Z,18.81
2022-10-03T00:28:22.028Z,18.63
2022-10-03T00:31:09.374Z,18.68
2022-10-03T00:34:11.389Z,18.66
2022-10-03T00:37:05.510Z,18.54
2022-10-03T00:40:09.557Z,18.57
2022-10-03T00:43:15.451Z,18.30
2022-10-03T00:46:11.457Z,18.28
2022-10-03T00:48:50.989Z,18.12
2022-10-03T00:52:16.486Z,18.09
2022-10-03T00:55:01.829Z,18.10
2022-10-03T00:57:55.505Z,18.14
2022-10-03T01:00:29.748Z,18.29
2022-10-03T01:03:22.550Z,18.36
2022-10-03T01:05:59.778Z,18.50
2022-10-03T01:08:57.277Z,18.46
2022-10-03T01:11:34.132Z,18.44
2022-10-03T01:14:37.538Z,18.57
2022-10-03T01:17:32.051Z,18.56
2022-10-03T01:20:22.693Z,18.47
2022-10-03T01:22:52.969Z,18.40
2022-10-03T01:25:26.699Z,18.24
2022-10-03T01:28:42.872Z,18.27
2022-10-03T01:31:14.872Z,18.26
2022-10-03T01:33:49.448Z,18.26
2022-10-03T01:36:35.250Z,18.34
2022-10-03T01:39:07.857Z,18.26
2022-10-03T01:42:05.047Z,18.32
2022-10-03T01:44:54.243Z,18.52
2022-10-03T01:47:40.604Z,18.44
2022-10-03T01:50:27.138Z,18.35
2022-10-03T01:53:24.163Z,18.47
2022-10-03T01:55:52.147Z,18.57
2022-10-03T01:58:23.649Z,18.66
2022-10-03T02:01:20.557Z,18.53
2022-10-03T02:04:04.443Z,18.45
2022-10-03T02:06:45.105Z,18.37
2022-10-03T02:09:28.055Z,18.43
2022-10-03T02:12:23.906Z,18.58
2022-10-03T02:15:12.185Z,18.74
2022-10-03T02:18:00.888Z,18.75
2022-10-03T02:20:34.476Z,18.77
2022-10-03T02:23:02.969Z,18.67
2022-10-03T02:25:36.479Z,18.69
2022-10-03T02:28:10.389Z,18.89
2022-10-03T02:31:23.925Z,18.90
2022-10-03T02:34:10.048Z,18.68
2022-10-03T02:37:08.338Z,18.78
2022-10-03T02:39:51.069Z,18.79
2022-10-03T02:42:37.385Z,18.89
2022-10-03T02:45:31.307Z,19.00
2022-10-03T02:48:19.751Z,18.99
2022-10-03T02:50:52.876Z,18.93
2022-10-03T02:53:39.654Z,18.85
2022-10-03T02:56:38.807Z,18.75
2022-10-03T02:59:30.693Z,18.74
2022-10-03T03:02:31.053Z,18.59
2022-10-03T03:05:17.877Z,18.50
2022-10-03T03:08:01.002Z,18.38
2022-10-03T03:10:41.127Z,18.27
2022-10-03T03:13:31.863Z,18.24
2022-10-03T03:16:34.456Z,18.19
2022-10-03T03:19:12.478Z,18.23
2022-10-03T03:22:18.506Z,18.15
2022-10-03T03:25:03.841Z,18.14
2022-10-03T03:27:31.746Z,18.02
2022-10-03T03:30:09.969Z,17.92
2022-10-03T03:32:53.245Z,17.95
2022-10-03T03:35:46.753Z,17.85
2022-10-03T03:38:26.181Z,17.71
2022-10-03T03:41:14.641Z,17.52
2022-10-03T03:43:59.485Z,17.52
2022-10-03T03:47:02.362Z,17.64
2022-10-03T03:49:48.505Z,17.43
2022-10-03T03:52:37.515Z,17.44
2022-10-03T03:55:15.266Z,17.39
2022-10-03T03:57:59.865Z,17.22
2022-10-03T04:00:46.447Z,17.18
2022-10-03T04:03:20.505Z,17.21
2022-10-03T04:05:54.323Z,17.23
2022-10-03T04:08:42.131Z,17.12
2022-10-03T04:11:31.591Z,17.05
2022-10-03T04:14:38.285Z,17.00
2022-10-03T04:17:42.872Z,16.92
2022-10-03T04:20:16.096Z,17.01
2022-10-03T04:22:58.048Z,17.04
2022-10-03T04:25:32.074Z,17.02
2022-10-03T04:28:27.002Z,16.87
2022-10-03T04:31:07.239Z,16.90
2022-10-03T04:33:43.434Z,16.94
2022-10-03T04:36:46.185Z,16.74
2022-10-03T04:39:36.863Z,16.91
2022-10-03T04:42:41.018Z,16.95
2022-10-03T04:45:36.939Z,16.87
2022-10-03T04:48:16.711Z,16.82
2022-10-03T04:51:29.960Z,16.71
2022-10-03T04:54:30.838Z,16.63
2022-10-03T04:57:36.086Z,16.55
2022-10-03T05:00:30.283Z,16.51
2022-10-03T05:03:07.683Z,16.34
2022-10-03T05:06:07.495Z,16.35
2022-10-03T05:08:58.813Z,16.37
2022-10-03T05:11:48.295Z,16.47
2022-10-03T05:14:32.541Z,16.44
2022-10-03T05:17:19.808Z,16.31
2022-10-03T05:19:54.042Z,16.21
2022-10-03T05:22:28.602Z,16.16
2022-10-03T05:25:02.532Z,16.31
2022-10-03T05:27:52.005Z,16.40
2022-10-03T05:30:35.486Z,16.45
2022-10-03T05:33:25.209Z,16.30
2022-10-03T05:36:18.702Z,16.16
2022-10-03T05:38:58.813Z,16.21
2022-10-03T05:41:32.630Z,16.44
2022-10-03T05:44:06.766Z,16.56
2022-10-03T05:46:56.473Z,16.73
2022-10-03T05:49:50.599Z,16.77
2022-10-03T05:52:40.501Z,16.75
2022-10-03T05:55:14.538Z,16.86
2022-10-03T05:58:14.187Z,16.97
2022-10-03T06:01:01.093Z,17.06
2022-10-03T06:03:53.116Z,17.19
2022-10-03T06:07:05.537Z,17.23
2022-10-03T06:09:58.157Z,17.29
2022-10-03T06:12:52.431Z,17.36
2022-10-03T06:15:38.635Z,17.40
2022-10-03T06:18:12.712Z,17.62
2022-10-03T06:21:25.653Z,17.76
2022-10-03T06:24:02.406Z,17.73
2022-10-03T06:26:51.015Z,17.69
2022-10-03T06:29:46.467Z,18.04
2022-10-03T06:32:24.597Z,17.91
2022-10-03T06:35:16.987Z,17.98
2022-10-03T06:38:10.287Z,18.17
2022-10-03T06:41:05.589Z,18.08
2022-10-03T06:44:18.528Z,18.27
2022-10-03T06:46:55.329Z,18.25
2022-10-03T06:49:46.756Z,18.28
2022-10-03T06:52:46.586Z,18.52
2022-10-03T06:55:51.548Z,18.51
2022-10-03T06:58:47.622Z,18.63
2022-10-03T07:01:27.650Z,18.89
2022-10-03T07:04:33.365Z,19.07
2022-10-03T07:07:19.393Z,19.13
2022-10-03T07:10:02.108Z,19.16
2022-10-03T07:12:44.819Z,19.15
2022-10-03T07:15:50.076Z,19.40
2022-10-03T07:18:43.159Z,19.65
2022-10-03T07:21:19.921Z,19.17
2022-10-03T07:24:10.610Z,19.18
2022-10-03T07:26:48.089Z,19.22
2022-10-03T07:29:35.023Z,19.67
2022-10-03T07:32:32.732Z,19.73
2022-10-03T07:35:27.373Z,20.03
2022-10-03T07:38:32.646Z,19.93
2022-10-03T07:41:19.130Z,19.79
2022-10-03T07:43:47.113Z,19.92
2022-10-03T07:46:26.848Z,20.06
2022-10-03T07:49:16.215Z,19.86
2022-10-03T07:52:17.418Z,20.15
2022-10-03T07:54:53.646Z,20.20
2022-10-03T07:57:27.995Z,20.42
2022-10-03T08:00:08.702Z,20.52
2022-10-03T08:02:57.033Z,20.53
2022-10-03T08:05:58.104Z,20.59
2022-10-03T08:09:03.241Z,20.75
2022-10-03T08:12:08.689Z,20.88
2022-10-03T08:14:53.061Z,20.77
2022-10-03T08:17:30.100Z,20.87
2022-10-03T08:20:18.642Z,20.90
2022-10-03T08:23:18.335Z,21.02
2022-10-03T08:26:13.840Z,20.79
2022-10-03T08:29:06.986Z,21.31
2022-10-03T08:31:44.387Z,20.38
2022-10-03T08:34:39.589Z,20.87
2022-10-03T08:37:44.325Z,21.74
2022-10-03T08:40:34.992Z,22.11
2022-10-03T08:43:24.293Z,22.66
2022-10-03T08:46:01.012Z,23.43
2022-10-03T08:48:55.882Z,24.22
2022-10-03T08:52:01.191Z,25.41
2022-10-03T08:54:47.849Z,25.14
2022-10-03T08:57:32.232Z,25.26
2022-10-03T09:00:22.110Z,25.22
2022-10-03T09:03:34.969Z,24.37
2022-10-03T09:06:12.001Z,25.51
2022-10-03T09:09:04.089Z,26.81
2022-10-03T09:11:32.603Z,26.68
2022-10-03T09:14:31.854Z,26.51
2022-10-03T09:17:26.975Z,26.41
2022-10-03T09:20:22.740Z,27.65
2022-10-03T09:22:59.764Z,27.67
2022-10-03T09:26:06.171Z,26.52
2022-10-03T09:28:52.970Z,26.92
2022-10-03T09:32:01.981Z,27.66
2022-10-03T09:35:10.115Z,28.63
2022-10-03T09:37:56.500Z,29.42
2022-10-03T09:40:53.203Z,28.64
2022-10-03T09:43:46.242Z,28.99
2022-10-03T09:46:36.314Z,29.57
2022-10-03T09:49:28.672Z,30.30
2022-10-03T09:52:25.287Z,32.29
2022-10-03T09:55:18.312Z,32.52
2022-10-03T09:58:09.050Z,32.37
2022-10-03T10:00:57.862Z,31.22
2022-10-03T10:03:47.317Z,30.50
2022-10-03T10:06:20.562Z,28.30
2022-10-03T10:09:21.897Z,29.61
2022-10-03T10:12:14.604Z,31.01
2022-10-03T10:14:47.905Z,31.61
2022-10-03T10:18:08.973Z,32.72
2022-10-03T10:21:06.641Z,32.99
2022-10-03T10:23:49.957Z,32.22
2022-10-03T10:26:49.750Z,31.99
2022-10-03T10:29:25.854Z,33.22
2022-10-03T10:32:21.518Z,33.29
2022-10-03T10:35:16.894Z,32.94
2022-10-03T10:38:09.738Z,32.36
2022-10-03T10:40:37.604Z,32.14
2022-10-03T10:43:59.216Z,30.84
2022-10-03T10:46:59.136Z,31.15
2022-10-03T10:49:51.902Z,34.14
2022-10-03T10:52:56.869Z,34.50
2022-10-03T10:56:08.678Z,32.99
2022-10-03T10:59:13.482Z,33.24
2022-10-03T11:02:08.590Z,34.21
2022-10-03T11:05:00.957Z,33.89
2022-10-03T11:08:03.021Z,34.27
2022-10-03T11:10:45.910Z,34.66
2022-10-03T11:13:35.618Z,33.71
2022-10-03T11:16:25.931Z,31.87
2022-10-03T11:19:14.878Z,33.19
2022-10-03T11:22:04.609Z,34.94
2022-10-03T11:24:34.960Z,35.17
2022-10-03T11:27:22.110Z,33.83
2022-10-03T11:29:52.819Z,33.61
2022-10-03T11:32:24.348Z,33.49
2022-10-03T11:34:57.647Z,32.14
2022-10-03T11:38:13.028Z,31.14
2022-10-03T11:40:53.248Z,31.50
2022-10-03T11:43:35.900Z,31.20
2022-10-03T11:46:23.108Z,31.52
2022-10-03T11:49:01.836Z,31.31
2022-10-03T11:51:58.841Z,30.16
2022-10-03T11:54:32.814Z,30.81
2022-10-03T11:57:08.517Z,31.84
2022-10-03T11:59:39.496Z,32.05
2022-10-03T12:02:31.418Z,32.80
2022-10-03T12:05:22.783Z,33.08
2022-10-03T12:08:11.612Z,31.29
2022-10-03T12:10:42.067Z,32.09
2022-10-03T12:13:17.270Z,32.53
2022-10-03T12:15:54.113Z,31.10
2022-10-03T12:18:44.874Z,31.02
2022-10-03T12:21:21.581Z,32.53
2022-10-03T12:24:25.842Z,33.21
2022-10-03T12:26:57.410Z,32.00
2022-10-03T12:29:28.123Z,33.05
2022-10-03T12:31:59.289Z,32.44
2022-10-03T12:34:45.363Z,31.97
2022-10-03T12:37:50.356Z,31.90
2022-10-03T12:40:41.942Z,33.18
2022-10-03T12:43:47.589Z,32.38
2022-10-03T12:46:34.113Z,32.38
2022-10-03T12:49:26.600Z,34.67
2022-10-03T12:51:58.889Z,32.93
2022-10-03T12:54:40.750Z,34.34
2022-10-03T12:57:39.565Z,33.52
2022-10-03T13:00:27.697Z,33.63
2022-10-03T13:03:13.102Z,35.58
2022-10-03T13:06:07.022Z,35.96
2022-10-03T13:09:22.103Z,36.17
2022-10-03T13:11:58.471Z,36.10
2022-10-03T13:14:27.855Z,34.74
2022-10-03T13:17:20.222Z,35.86
2022-10-03T13:19:58.390Z,33.21
2022-10-03T13:22:34.387Z,34.97
2022-10-03T13:25:17.808Z,36.63
2022-10-03T13:28:13.114Z,34.70
2022-10-03T13:30:58.042Z,35.64
2022-10-03T13:33:32.987Z,34.04
2022-10-03T13:36:20.672Z,35.84
2022-10-03T13:39:08.109Z,35.50
2022-10-03T13:41:52.047Z,36.24
2022-10-03T13:44:37.696Z,34.21
2022-10-03T13:47:27.022Z,35.35
2022-10-03T13:50:01.478Z,38.34
2022-10-03T13:52:48.050Z,39.66
2022-10-03T13:55:58.453Z,40.43
2022-10-03T13:58:36.094Z,39.51
2022-10-03T14:01:27.232Z,39.34
2022-10-03T14:04:19.430Z,39.53
2022-10-03T14:06:52.581Z,39.07
2022-10-03T14:09:29.157Z,35.33
2022-10-03T14:12:06.712Z,34.27
2022-10-03T14:15:09.043Z,33.77
2022-10-03T14:17:50.595Z,35.56
2022-10-03T14:20:29.341Z,37.55
2022-10-03T14:23:18.646Z,37.17
2022-10-03T14:26:00.251Z,38.73
2022-10-03T14:28:46.472Z,38.22
2022-10-03T14:31:20.410Z,35.90
2022-10-03T14:34:25.558Z,37.62
2022-10-03T14:36:52.968Z,36.82
2022-10-03T14:39:39.280Z,38.55
2022-10-03T14:42:31.315Z,38.74
2022-10-03T14:45:12.786Z,38.32
2022-10-03T14:47:43.973Z,36.89
2022-10-03T14:50:22.503Z,35.73
2022-10-03T14:53:09.193Z,34.44
2022-10-03T14:55:53.033Z,33.43
2022-10-03T14:58:32.679Z,33.93
2022-10-03T15:01:13.182Z,33.71
2022-10-03T15:04:06.996Z,35.21
2022-10-03T15:06:45.121Z,33.78
2022-10-03T15:09:17.654Z,35.57
2022-10-03T15:12:18.301Z,34.10
2022-10-03T15:15:01.654Z,32.45
2022-10-03T15:17:37.248Z,32.05
2022-10-03T15:20:06.192Z,32.41
2022-10-03T15:22:36.504Z,30.31
2022-10-03T15:25:13.913Z,28.73
2022-10-03T15:27:45.265Z,28.45
2022-10-03T15:30:31.931Z,27.99
2022-10-03T15:33:29.467Z,27.59
2022-10-03T15:36:09.515Z,26.74
2022-10-03T15:38:42.005Z,26.49
2022-10-03T15:41:50.607Z,26.49
2022-10-03T15:44:39.350Z,26.59
2022-10-03T15:47:15.147Z,26.81
2022-10-03T15:50:04.739Z,26.89
2022-10-03T15:52:43.990Z,26.95
2022-10-03T15:55:20.408Z,26.87
2022-10-03T15:57:51.097Z,26.18
2022-10-03T16:00:39.233Z,25.49
2022-10-03T16:03:17.815Z,24.94
2022-10-03T16:06:01.036Z,24.92
2022-10-03T16:08:33.475Z,25.16
2022-10-03T16:11:04.841Z,25.01
2022-10-03T16:13:38.544Z,25.28
2022-10-03T16:16:16.675Z,25.23
2022-10-03T16:18:51.961Z,25.37
2022-10-03T16:21:31.448Z,25.26
2022-10-03T16:24:03.263Z,25.09
2022-10-03T16:26:42.167Z,25.14
2022-10-03T16:29:30.863Z,25.09
2022-10-03T16:32:07.896Z,24.83
2022-10-03T16:34:41.648Z,24.79
2022-10-03T16:37:19.644Z,24.24
2022-10-03T16:40:20.432Z,24.28
2022-10-03T16:42:51.911Z,24.14
2022-10-03T16:45:31.261Z,23.79
2022-10-03T16:48:22.269Z,23.81
2022-10-03T16:50:53.482Z,23.70
2022-10-03T16:53:23.393Z,23.64
2022-10-03T16:56:08.351Z,23.61
2022-10-03T16:58:43.590Z,23.56
2022-10-03T17:01:27.213Z,23.61
2022-10-03T17:04:17.980Z,23.58
2022-10-03T17:06:48.962Z,23.44
2022-10-03T17:09:47.402Z,23.33
2022-10-03T17:12:27.578Z,23.18
2022-10-03T17:14:58.373Z,23.03
2022-10-03T17:17:30.348Z,22.97
2022-10-03T17:20:05.693Z,22.81
2022-10-03T17:22:47.231Z,22.66
2022-10-03T17:25:18.288Z,22.53
2022-10-03T17:27:51.113Z,22.55
2022-10-03T17:30:40.076Z,22.47
2022-10-03T17:33:17.015Z,22.15
2022-10-03T17:36:06.273Z,22.04
2022-10-03T17:38:50.488Z,22.05
2022-10-03T17:41:24.525Z,22.15
2022-10-03T17:44:28.539Z,22.16
2022-10-03T17:47:33.120Z,22.06
2022-10-03T17:50:02.935Z,22.16
2022-10-03T17:52:32.008Z,22.02
2022-10-03T17:55:07.072Z,21.99
2022-10-03T17:57:42.877Z,22.02
2022-10-03T18:00:19.974Z,22.04
2022-10-03T18:03:14.231Z,21.94
2022-10-03T18:05:50.134Z,21.79
2022-10-03T18:08:30.446Z,21.63
2022-10-03T18:11:02.496Z,21.69
2022-10-03T18:13:42.404Z,21.66
2022-10-03T18:16:30.877Z,21.53
2022-10-03T18:19:07.940Z,21.44
2022-10-03T18:21:41.514Z,21.26
2022-10-03T18:24:16.919Z,21.19
2022-10-03T18:26:54.343Z,21.21
2022-10-03T18:29:37.659Z,21.28
2022-10-03T18:32:11.730Z,21.32
2022-10-03T18:34:53.131Z,21.25
2022-10-03T18:37:28.263Z,21.25
2022-10-03T18:39:58.685Z,21.14
2022-10-03T18:42:28.368Z,21.14
2022-10-03T18:45:01.848Z,21.18
2022-10-03T18:47:41.543Z,21.16
2022-10-03T18:50:22.708Z,21.24
2022-10-03T18:53:04.020Z,21.21
2022-10-03T18:55:46.642Z,20.98
2022-10-03T18:58:25.992Z,20.96
2022-10-03T19:01:16.633Z,21.03
2022-10-03T19:03:58.661Z,20.98
2022-10-03T19:06:37.518Z,20.86
2022-10-03T19:09:19.628Z,20.82
2022-10-03T19:11:53.631Z,20.85
2022-10-03T19:14:47.752Z,20.85
2022-10-03T19:17:51.799Z,20.83
2022-10-03T19:20:33.401Z,20.69
2022-10-03T19:23:36.536Z,20.77
2022-10-03T19:26:13.001Z,20.77
2022-10-03T19:28:50.059Z,20.65
2022-10-03T19:31:25.336Z,20.58
2022-10-03T19:34:04.045Z,20.68
2022-10-03T19:36:37.301Z,20.56
2022-10-03T19:39:07.848Z,20.61
2022-10-03T19:41:40.780Z,20.57
2022-10-03T19:44:16.953Z,20.44
2022-10-03T19:46:48.637Z,20.40
2022-10-03T19:49:31.306Z,20.27
2022-10-03T19:52:21.293Z,20.38
2022-10-03T19:54:50.992Z,20.25
2022-10-03T19:57:28.324Z,19.97
2022-10-03T20:00:15.058Z,19.88
2022-10-03T20:02:46.162Z,19.87
2022-10-03T20:05:39.930Z,19.52
2022-10-03T20:08:46.427Z,19.30
2022-10-03T20:11:35.312Z,19.29
2022-10-03T20:14:04.101Z,19.27
2022-10-03T20:16:36.105Z,19.39
2022-10-03T20:19:07.858Z,19.46
2022-10-03T20:21:36.723Z,19.46
2022-10-03T20:24:37.216Z,19.46
2022-10-03T20:27:23.945Z,19.53
2022-10-03T20:30:21.773Z,19.43
2022-10-03T20:32:51.271Z,19.56
2022-10-03T20:35:26.042Z,19.54
2022-10-03T20:38:17.463Z,19.42
2022-10-03T20:41:09.951Z,19.50
2022-10-03T20:43:44.260Z,19.42
2022-10-03T20:46:33.117Z,19.54
2022-10-03T20:49:13.141Z,19.43
2022-10-03T20:51:56.551Z,19.38
2022-10-03T20:54:48.081Z,19.49
2022-10-03T20:57:21.426Z,19.33
2022-10-03T21:00:00.359Z,19.31
2022-10-03T21:02:50.307Z,19.46
2022-10-03T21:05:38.573Z,19.54
2022-10-03T21:08:29.750Z,19.44
2022-10-03T21:11:26.297Z,19.36
2022-10-03T21:14:29.893Z,19.39
2022-10-03T21:16:59.549Z,19.23
2022-10-03T21:19:33.164Z,19.39
2022-10-03T21:22:05.453Z,19.16
2022-10-03T21:24:46.443Z,19.21
2022-10-03T21:27:19.033Z,19.15
2022-10-03T21:30:23.944Z,19.16
2022-10-03T21:33:05.376Z,19.24
2022-10-03T21:35:36.190Z,19.19
2022-10-03T21:38:10.932Z,19.30
2022-10-03T21:41:09.491Z,19.25
2022-10-03T21:43:58.000Z,19.26
2022-10-03T21:46:53.863Z,19.27
2022-10-03T21:49:31.056Z,19.36
2022-10-03T21:52:14.458Z,19.34
2022-10-03T21:55:00.982Z,19.34
2022-10-03T21:57:44.038Z,19.34
2022-10-03T22:00:18.539Z,19.47
2022-10-03T22:03:16.876Z,19.63
2022-10-03T22:06:29.745Z,19.62
2022-10-03T22:09:04.343Z,19.58
2022-10-03T22:11:44.127Z,19.58
2022-10-03T22:14:15.741Z,19.57
2022-10-03T22:16:57.075Z,19.55
2022-10-03T22:19:31.656Z,19.48
2022-10-03T22:22:13.969Z,19.38
2022-10-03T22:24:44.683Z,19.24
2022-10-03T22:27:29.947Z,19.25
2022-10-03T22:30:06.065Z,19.28
2022-10-03T22:32:34.276Z,19.34
2022-10-03T22:35:32.895Z,19.33
2022-10-03T22:38:01.561Z,19.53
2022-10-03T22:40:30.378Z,19.57
2022-10-03T22:43:03.363Z,19.68
2022-10-03T22:45:36.038Z,19.75
2022-10-03T22:48:10.952Z,19.92
2022-10-03T22:50:41.937Z,19.97
2022-10-03T22:53:15.323Z,19.99
2022-10-03T22:55:46.883Z,20.11
2022-10-03T22:58:14.851Z,20.16
2022-10-03T23:00:45.575Z,20.07
2022-10-03T23:03:15.866Z,19.99
2022-10-03T23:05:59.163Z,19.61
2022-10-03T23:09:04.653Z,19.63
2022-10-03T23:11:35.025Z,19.62
2022-10-03T23:14:18.743Z,19.59
2022-10-03T23:16:56.199Z,19.42
2022-10-03T23:19:48.520Z,19.37
2022-10-03T23:22:18.537Z,19.29
2022-10-03T23:25:14.039Z,19.23
2022-10-03T23:28:27.010Z,19.23
2022-10-03T23:30:55.049Z,19.27
2022-10-03T23:33:32.300Z,19.26
2022-10-03T23:36:16.319Z,19.15
2022-10-03T23:38:44.629Z,18.95
2022-10-03T23:41:28.849Z,18.95
2022-10-03T23:43:58.187Z,18.98
2022-10-03T23:46:30.262Z,18.96
2022-10-03T23:49:02.190Z,19.01
2022-10-03T23:51:34.814Z,18.96
2022-10-03T23:54:06.492Z,18.78
2022-10-03T23:56:45.142Z,18.83
2022-10-03T23:59:15.648Z,18.81
